createdAt,value
2023-04-25T00:00:46.215Z,97558.09
2023-04-25T00:03:49.577Z,97554.50
2023-04-25T00:06:51.649Z,97551.19
2023-04-25T00:09:53.431Z,97557.31
2023-04-25T00:12:55.163Z,97557.31
2023-04-25T00:15:57.496Z,97561.63
2023-04-25T00:19:00.790Z,97559.97
2023-04-25T00:22:02.359Z,97561.91
2023-04-25T00:25:04.616Z,97560.97
2023-04-25T00:28:13.093Z,97557.59
2023-04-25T00:31:17.600Z,97559.44
2023-04-25T00:34:20.578Z,97549.84
2023-04-25T00:37:22.531Z,97560.44
2023-04-25T00:40:24.325Z,97561.28
2023-04-25T00:43:27.056Z,97559.56
2023-04-25T00:46:29.492Z,97556.13
2023-04-25T00:49:32.825Z,97561.41
2023-04-25T00:52:34.806Z,97545.47
2023-04-25T00:55:37.182Z,97545.56
2023-04-25T00:58:39.311Z,97544.00
2023-04-25T01:01:42.681Z,97539.84
2023-04-25T01:04:45.952Z,97545.28
2023-04-25T01:07:48.310Z,97535.09
2023-04-25T01:10:50.402Z,97541.28
2023-04-25T01:13:52.267Z,97546.69
2023-04-25T01:16:54.159Z,97546.81
2023-04-25T01:19:57.500Z,97546.09
2023-04-25T01:23:00.693Z,97537.47
2023-04-25T01:26:02.985Z,97544.47
2023-04-25T01:29:04.920Z,97538.34
2023-04-25T01:32:07.554Z,97535.75
2023-04-25T01:35:10.869Z,97540.19
2023-04-25T01:38:14.643Z,97553.47
2023-04-25T01:41:16.427Z,97545.59
2023-04-25T01:44:17.985Z,97550.03
2023-04-25T01:47:19.727Z,97544.81
2023-04-25T01:50:21.567Z,97549.25
2023-04-25T01:53:25.747Z,97546.75
2023-04-25T01:56:31.249Z,97550.41
2023-04-25T01:59:33.324Z,97547.81
2023-04-25T02:02:42.201Z,97546.97
2023-04-25T02:05:54.879Z,97549.66
2023-04-25T02:08:58.400Z,97557.59
2023-04-25T02:11:59.970Z,97557.75
2023-04-25T02:15:08.350Z,97562.09
2023-04-25T02:18:17.509Z,97562.81
2023-04-25T02:21:19.832Z,97571.66
2023-04-25T02:24:22.831Z,97561.88
2023-04-25T02:27:27.640Z,97564.66
2023-04-25T02:30:29.399Z,97565.38
2023-04-25T02:33:31.434Z,97558.19
2023-04-25T02:36:35.345Z,97565.19
2023-04-25T02:39:38.447Z,97559.13
2023-04-25T02:42:39.984Z,97567.16
2023-04-25T02:45:41.625Z,97560.09
2023-04-25T02:48:44.736Z,97558.25
2023-04-25T02:51:46.511Z,97555.63
2023-04-25T02:54:49.779Z,97562.56
2023-04-25T02:57:51.808Z,97572.25
2023-04-25T03:01:05.055Z,97574.88
2023-04-25T03:04:06.642Z,97566.75
2023-04-25T03:07:08.907Z,97572.88
2023-04-25T03:10:12.462Z,97590.59
2023-04-25T03:13:14.085Z,97596.16
2023-04-25T03:16:17.659Z,97601.88
2023-04-25T03:19:19.806Z,97596.94
2023-04-25T03:22:21.538Z,97612.06
2023-04-25T03:25:25.660Z,97602.56
2023-04-25T03:28:27.226Z,97600.00
2023-04-25T03:31:31.565Z,97604.59
2023-04-25T03:34:34.417Z,97606.31
2023-04-25T03:37:36.493Z,97610.75
2023-04-25T03:40:39.707Z,97623.94
2023-04-25T03:44:01.704Z,97611.59
2023-04-25T03:47:03.724Z,97626.66
2023-04-25T03:50:07.072Z,97624.69
2023-04-25T03:53:09.249Z,97628.03
2023-04-25T03:56:32.235Z,97620.16
2023-04-25T03:59:40.975Z,97623.69
2023-04-25T04:02:45.904Z,97632.44
2023-04-25T04:05:48.489Z,97627.91
2023-04-25T04:08:50.325Z,97626.31
2023-04-25T04:11:53.438Z,97634.09
2023-04-25T04:14:55.259Z,97640.06
2023-04-25T04:17:57.347Z,97648.91
2023-04-25T04:21:01.988Z,97648.91
2023-04-25T04:24:06.957Z,97652.19
2023-04-25T04:27:22.719Z,97653.84
2023-04-25T04:30:32.093Z,97647.53
2023-04-25T04:33:36.463Z,97654.59
2023-04-25T04:36:41.113Z,97658.22
2023-04-25T04:39:42.789Z,97657.41
2023-04-25T04:43:06.781Z,97661.84
2023-04-25T04:46:25.648Z,97667.91
2023-04-25T04:50:09.570Z,97679.41
2023-04-25T04:53:34.256Z,97683.31
2023-04-25T04:57:04.909Z,97680.94
2023-04-25T05:00:33.165Z,97694.41
2023-04-25T05:04:04.943Z,97696.63
2023-04-25T05:07:21.045Z,97701.91
2023-04-25T05:10:33.794Z,97703.44
2023-04-25T05:13:45.392Z,97706.19
2023-04-25T05:17:09.376Z,97711.25
2023-04-25T05:20:31.710Z,97714.00
2023-04-25T05:23:56.947Z,97713.00
2023-04-25T05:27:17.402Z,97712.06
2023-04-25T05:30:29.323Z,97719.03
2023-04-25T05:33:39.876Z,97728.84
2023-04-25T05:36:42.211Z,97726.53
2023-04-25T05:39:43.809Z,97735.94
2023-04-25T05:43:04.360Z,97732.97
2023-04-25T05:46:19.005Z,97743.47
2023-04-25T05:49:30.968Z,97744.88
2023-04-25T05:52:39.717Z,97753.50
2023-04-25T05:56:03.872Z,97757.06
2023-04-25T05:59:06.006Z,97761.38
2023-04-25T06:02:07.969Z,97757.81
2023-04-25T06:05:12.586Z,97757.63
2023-04-25T06:08:14.573Z,97764.59
2023-04-25T06:11:16.291Z,97767.00
2023-04-25T06:14:18.324Z,97770.47
2023-04-25T06:17:24.085Z,97776.44
2023-04-25T06:20:28.368Z,97774.66
2023-04-25T06:23:32.829Z,97774.53
2023-04-25T06:26:38.362Z,97782.53
2023-04-25T06:29:41.160Z,97780.59
2023-04-25T06:32:43.771Z,97779.50
2023-04-25T06:35:46.894Z,97787.38
2023-04-25T06:38:51.700Z,97789.09
2023-04-25T06:41:54.378Z,97797.94
2023-04-25T06:45:14.532Z,97792.38
2023-04-25T06:48:16.742Z,97792.03
2023-04-25T06:51:20.809Z,97791.69
2023-04-25T06:54:25.912Z,97802.81
2023-04-25T06:57:35.819Z,97796.25
2023-04-25T07:00:56.780Z,97799.63
2023-04-25T07:04:01.269Z,97809.41
2023-04-25T07:07:06.381Z,97810.84
2023-04-25T07:10:23.047Z,97810.78
2023-04-25T07:13:25.078Z,97809.44
2023-04-25T07:16:26.865Z,97813.97
2023-04-25T07:19:30.718Z,97818.63
2023-04-25T07:22:36.366Z,97823.38
2023-04-25T07:25:39.356Z,97826.09
2023-04-25T07:28:41.116Z,97831.38
2023-04-25T07:31:43.410Z,97838.31
2023-04-25T07:34:45.106Z,97833.09
2023-04-25T07:37:48.971Z,97841.19
2023-04-25T07:40:53.839Z,97852.56
2023-04-25T07:43:56.383Z,97844.63
2023-04-25T07:46:58.732Z,97845.28
2023-04-25T07:50:01.524Z,97852.28
2023-04-25T07:53:05.053Z,97858.22
2023-04-25T07:56:11.924Z,97858.69
2023-04-25T07:59:16.679Z,97859.28
2023-04-25T08:02:18.520Z,97858.56
2023-04-25T08:05:22.794Z,97860.56
2023-04-25T08:08:31.955Z,97857.63
2023-04-25T08:11:34.053Z,97873.50
2023-04-25T08:14:40.884Z,97874.09
2023-04-25T08:17:42.773Z,97881.09
2023-04-25T08:20:44.505Z,97876.78
2023-04-25T08:23:48.706Z,97879.56
2023-04-25T08:27:00.228Z,97889.00
2023-04-25T08:30:04.223Z,97893.22
2023-04-25T08:33:06.422Z,97884.56
2023-04-25T08:36:38.406Z,97892.22
2023-04-25T08:39:53.511Z,97898.25
2023-04-25T08:43:13.167Z,97903.97
2023-04-25T08:46:18.474Z,97908.34
2023-04-25T08:49:32.773Z,97908.34
2023-04-25T08:52:37.511Z,97921.19
2023-04-25T08:55:42.406Z,97906.31
2023-04-25T08:58:47.057Z,97915.31
2023-04-25T09:01:49.932Z,97922.06
2023-04-25T09:04:52.412Z,97923.53
2023-04-25T09:07:55.034Z,97919.97
2023-04-25T09:10:58.475Z,97926.59
2023-04-25T09:14:13.917Z,97936.75
2023-04-25T09:17:29.882Z,97944.81
2023-04-25T09:20:35.276Z,97952.78
2023-04-25T09:23:43.101Z,97947.66
2023-04-25T09:26:46.565Z,97950.78
2023-04-25T09:29:48.230Z,97952.50
2023-04-25T09:32:51.260Z,97952.56
2023-04-25T09:35:56.375Z,97962.50
2023-04-25T09:39:16.107Z,97965.09
2023-04-25T09:42:25.578Z,97967.13
2023-04-25T09:45:30.437Z,97971.41
2023-04-25T09:48:32.384Z,97977.53
2023-04-25T09:51:38.411Z,97980.19
2023-04-25T09:54:41.978Z,97977.22
2023-04-25T09:57:54.213Z,97981.78
2023-04-25T10:00:59.478Z,97983.84
2023-04-25T10:04:11.958Z,97987.91
2023-04-25T10:07:39.252Z,97989.75
2023-04-25T10:10:45.468Z,97994.06
2023-04-25T10:13:49.217Z,98005.59
2023-04-25T10:16:54.598Z,98002.13
2023-04-25T10:19:56.615Z,98009.91
2023-04-25T10:23:03.879Z,98017.84
2023-04-25T10:26:14.070Z,98012.22
2023-04-25T10:29:22.848Z,98018.56
2023-04-25T10:32:24.938Z,98022.44
2023-04-25T10:35:28.076Z,98024.81
2023-04-25T10:38:29.705Z,98034.56
2023-04-25T10:41:31.451Z,98037.50
2023-04-25T10:44:35.123Z,98021.66
2023-04-25T10:47:37.937Z,98031.28
2023-04-25T10:50:40.976Z,98023.97
2023-04-25T10:53:44.773Z,98020.84
2023-04-25T10:56:46.717Z,98026.22
2023-04-25T10:59:49.708Z,98024.22
2023-04-25T11:02:52.888Z,98025.47
2023-04-25T11:09:19.262Z,98017.72
2023-04-25T11:12:20.836Z,98019.16
2023-04-25T11:15:24.289Z,98017.56
2023-04-25T11:18:27.247Z,98018.88
2023-04-25T11:21:29.081Z,98012.69
2023-04-25T11:24:33.513Z,98017.81
2023-04-25T11:27:35.973Z,98022.84
2023-04-25T11:30:39.298Z,98020.22
2023-04-25T11:33:41.884Z,98029.25
2023-04-25T11:36:43.845Z,98034.13
2023-04-25T11:39:46.640Z,98033.66
2023-04-25T11:42:48.543Z,98029.81
2023-04-25T11:45:54.682Z,98046.47
2023-04-25T11:48:56.836Z,98047.72
2023-04-25T11:51:58.357Z,98053.88
2023-04-25T11:55:00.045Z,98052.16
2023-04-25T11:58:01.895Z,98061.47
2023-04-25T12:01:04.924Z,98062.75
2023-04-25T12:04:13.297Z,98070.25
2023-04-25T12:07:15.370Z,98067.13
2023-04-25T12:10:18.498Z,98074.81
2023-04-25T12:13:23.829Z,98071.75
2023-04-25T12:16:27.018Z,98078.41
2023-04-25T12:19:34.199Z,98074.22
2023-04-25T12:22:35.713Z,98077.88
2023-04-25T12:25:41.011Z,98078.72
2023-04-25T12:28:48.728Z,98072.72
2023-04-25T12:31:52.996Z,98073.94
2023-04-25T12:34:54.674Z,98075.63
2023-04-25T12:37:56.253Z,98063.84
2023-04-25T12:40:58.596Z,98065.91
2023-04-25T12:44:00.499Z,98074.03
2023-04-25T12:47:04.249Z,98073.84
2023-04-25T12:50:06.462Z,98082.03
2023-04-25T12:53:08.022Z,98080.28
2023-04-25T12:56:09.571Z,98075.44
2023-04-25T12:59:11.193Z,98078.03
2023-04-25T13:02:14.414Z,98079.22
2023-04-25T13:05:16.356Z,98084.91
2023-04-25T13:08:18.145Z,98081.06
2023-04-25T13:11:19.668Z,98077.44
2023-04-25T13:14:21.405Z,98076.31
2023-04-25T13:17:24.830Z,98080.06
2023-04-25T13:20:27.069Z,98075.38
2023-04-25T13:23:29.103Z,98092.88
2023-04-25T13:26:34.113Z,98079.88
2023-04-25T13:29:36.721Z,98078.75
2023-04-25T13:32:40.125Z,98086.94
2023-04-25T13:35:42.262Z,98078.06
2023-04-25T13:38:45.145Z,98083.56
2023-04-25T13:41:46.773Z,98079.94
2023-04-25T13:44:48.534Z,98087.25
2023-04-25T13:47:51.902Z,98096.91
2023-04-25T13:50:53.744Z,98086.47
2023-04-25T13:53:55.290Z,98089.41
2023-04-25T13:56:59.648Z,98085.19
2023-04-25T14:00:05.804Z,98091.94
2023-04-25T14:03:09.698Z,98092.44
2023-04-25T14:06:12.181Z,98091.22
2023-04-25T14:09:14.162Z,98098.81
2023-04-25T14:12:16.597Z,98118.31
2023-04-25T14:15:18.190Z,98121.53
2023-04-25T14:18:21.241Z,98125.78
2023-04-25T14:21:22.769Z,98125.34
2023-04-25T14:24:24.346Z,98126.97
2023-04-25T14:27:28.606Z,98130.59
2023-04-25T14:30:30.805Z,98138.47
2023-04-25T14:33:33.886Z,98139.38
2023-04-25T14:36:36.507Z,98135.34
2023-04-25T14:39:38.459Z,98138.03
2023-04-25T14:42:40.311Z,98133.56
2023-04-25T14:45:41.889Z,98134.97
2023-04-25T14:48:45.221Z,98136.34
2023-04-25T14:51:46.836Z,98139.94
2023-04-25T14:54:48.470Z,98136.50
2023-04-25T14:57:50.050Z,98135.41
2023-04-25T15:00:51.720Z,98138.41
2023-04-25T15:03:55.675Z,98131.59
2023-04-25T15:06:58.263Z,98136.44
2023-04-25T15:10:00.035Z,98143.19
2023-04-25T15:13:01.837Z,98147.06
2023-04-25T15:16:03.646Z,98145.31
2023-04-25T15:19:06.884Z,98147.91
2023-04-25T15:22:08.646Z,98149.69
2023-04-25T15:25:11.017Z,98143.41
2023-04-25T15:28:14.876Z,98145.28
2023-04-25T15:31:16.437Z,98145.66
2023-04-25T15:34:19.368Z,98155.78
2023-04-25T15:37:20.895Z,98151.53
2023-04-25T15:40:22.860Z,98150.00
2023-04-25T15:43:24.565Z,98150.59
2023-04-25T15:46:26.867Z,98158.84
2023-04-25T15:49:31.642Z,98153.25
2023-04-25T15:52:33.767Z,98162.31
2023-04-25T15:55:35.410Z,98161.34
2023-04-25T15:58:36.942Z,98168.78
2023-04-25T16:01:40.024Z,98178.03
2023-04-25T16:04:43.822Z,98189.84
2023-04-25T16:07:45.882Z,98186.63
2023-04-25T16:10:47.621Z,98182.94
2023-04-25T16:13:50.025Z,98175.00
2023-04-25T16:16:52.074Z,98180.22
2023-04-25T16:19:55.782Z,98189.38
2023-04-25T16:22:57.372Z,98191.81
2023-04-25T16:25:59.038Z,98181.50
2023-04-25T16:29:01.259Z,98183.88
2023-04-25T16:32:03.321Z,98188.34
2023-04-25T16:35:07.238Z,98184.13
2023-04-25T16:38:09.255Z,98185.44
2023-04-25T16:41:13.245Z,98178.56
2023-04-25T16:44:14.792Z,98184.06
2023-04-25T16:47:20.010Z,98186.13
2023-04-25T16:50:23.486Z,98180.97
2023-04-25T16:53:25.546Z,98192.16
2023-04-25T16:56:27.146Z,98195.56
2023-04-25T16:59:28.953Z,98184.97
2023-04-25T17:02:30.611Z,98194.47
2023-04-25T17:05:33.733Z,98197.00
2023-04-25T17:08:35.888Z,98199.28
2023-04-25T17:11:37.778Z,98205.72
2023-04-25T17:14:39.967Z,98210.63
2023-04-25T17:17:41.765Z,98206.41
2023-04-25T17:20:44.831Z,98215.13
2023-04-25T17:23:46.544Z,98211.50
2023-04-25T17:26:49.028Z,98224.75
2023-04-25T17:29:51.102Z,98227.50
2023-04-25T17:32:53.059Z,98218.63
2023-04-25T17:35:55.946Z,98232.13
2023-04-25T17:38:57.750Z,98238.50
2023-04-25T17:42:00.840Z,98240.63
2023-04-25T17:45:02.684Z,98245.06
2023-04-25T17:48:04.375Z,98237.19
2023-04-25T17:51:07.565Z,98246.28
2023-04-25T17:54:09.209Z,98247.03
2023-04-25T17:57:11.641Z,98252.31
2023-04-25T18:00:13.896Z,98253.13
2023-04-25T18:03:17.347Z,98251.56
2023-04-25T18:06:20.471Z,98249.97
2023-04-25T18:09:23.828Z,98261.72
2023-04-25T18:12:27.517Z,98256.47
2023-04-25T18:15:29.847Z,98254.13
2023-04-25T18:21:46.936Z,98261.25
2023-04-25T18:24:49.204Z,98267.56
2023-04-25T18:27:51.202Z,98274.78
2023-04-25T18:30:52.785Z,98287.13
2023-04-25T18:33:54.771Z,98290.75
2023-04-25T18:36:57.928Z,98286.44
2023-04-25T18:39:59.463Z,98290.00
2023-04-25T18:43:01.086Z,98296.91
2023-04-25T18:46:02.739Z,98303.06
2023-04-25T18:49:04.371Z,98304.75
2023-04-25T18:52:10.612Z,98305.00
2023-04-25T18:55:12.651Z,98302.47
2023-04-25T18:58:14.203Z,98307.81
2023-04-25T19:01:16.045Z,98310.78
2023-04-25T19:04:18.085Z,98316.25
2023-04-25T19:07:22.267Z,98319.03
2023-04-25T19:10:23.982Z,98330.69
2023-04-25T19:13:26.074Z,98334.63
2023-04-25T19:16:27.722Z,98333.94
2023-04-25T19:19:29.315Z,98342.84
2023-04-25T19:22:32.608Z,98346.41
2023-04-25T19:25:34.410Z,98339.47
2023-04-25T19:28:36.171Z,98344.81
2023-04-25T19:31:38.718Z,98347.47
2023-04-25T19:34:43.498Z,98345.69
2023-04-25T19:37:47.008Z,98340.41
2023-04-25T19:40:49.027Z,98350.09
2023-04-25T19:43:51.066Z,98343.94
2023-04-25T19:46:52.960Z,98357.19
2023-04-25T19:49:54.617Z,98358.09
2023-04-25T19:52:57.822Z,98358.84
2023-04-25T19:55:59.344Z,98354.47
2023-04-25T19:59:00.946Z,98356.34
2023-04-25T20:02:04.550Z,98358.19
2023-04-25T20:05:08.176Z,98359.97
2023-04-25T20:08:11.480Z,98367.09
2023-04-25T20:11:13.578Z,98365.53
2023-04-25T20:14:16.534Z,98370.91
2023-04-25T20:17:18.040Z,98369.31
2023-04-25T20:20:20.085Z,98383.53
2023-04-25T20:23:23.371Z,98378.25
2023-04-25T20:26:25.844Z,98381.78
2023-04-25T20:29:27.471Z,98387.13
2023-04-25T20:32:32.049Z,98380.13
2023-04-25T20:35:33.905Z,98388.13
2023-04-25T20:38:37.096Z,98386.50
2023-04-25T20:41:40.354Z,98384.88
2023-04-25T20:44:42.346Z,98388.53
2023-04-25T20:47:44.585Z,98392.16
2023-04-25T20:50:46.692Z,98394.88
2023-04-25T20:53:49.682Z,98388.69
2023-04-25T20:56:52.409Z,98387.78
2023-04-25T20:59:53.995Z,98393.00
2023-04-25T21:02:56.548Z,98393.06
2023-04-25T21:05:58.188Z,98393.94
2023-04-25T21:09:01.202Z,98393.03
2023-04-25T21:12:04.824Z,98393.03
2023-04-25T21:15:08.070Z,98396.53
2023-04-25T21:18:09.793Z,98401.88
2023-04-25T21:21:11.425Z,98395.81
2023-04-25T21:24:14.580Z,98403.81
2023-04-25T21:27:17.764Z,98396.88
2023-04-25T21:30:23.145Z,98396.06
2023-04-25T21:33:25.313Z,98398.78
2023-04-25T21:36:27.828Z,98395.22
2023-04-25T21:39:30.948Z,98395.22
2023-04-25T21:42:32.522Z,98397.03
2023-04-25T21:45:43.391Z,98399.84
2023-04-25T21:48:53.998Z,98395.53
2023-04-25T21:51:56.072Z,98397.28
2023-04-25T21:54:59.376Z,98396.53
2023-04-25T21:58:01.204Z,98392.22
2023-04-25T22:01:03.053Z,98397.63
2023-04-25T22:04:05.137Z,98408.25
2023-04-25T22:07:08.247Z,98403.84
2023-04-25T22:10:12.334Z,98400.34
2023-04-25T22:13:15.306Z,98404.88
2023-04-25T22:16:17.272Z,98404.88
2023-04-25T22:19:19.006Z,98419.03
2023-04-25T22:22:21.384Z,98419.09
2023-04-25T22:25:25.552Z,98423.59
2023-04-25T22:28:28.108Z,98414.19
2023-04-25T22:31:29.796Z,98426.50
2023-04-25T22:34:31.644Z,98425.66
2023-04-25T22:37:33.919Z,98430.13
2023-04-25T22:40:36.928Z,98431.03
2023-04-25T22:43:41.336Z,98437.22
2023-04-25T22:46:43.249Z,98437.22
2023-04-25T22:49:45.487Z,98437.41
2023-04-25T22:52:48.111Z,98441.84
2023-04-25T22:55:57.321Z,98436.72
2023-04-25T22:58:59.089Z,98438.59
2023-04-25T23:02:00.741Z,98443.03
2023-04-25T23:05:02.546Z,98443.09
2023-04-25T23:08:05.448Z,98445.00
2023-04-25T23:11:08.909Z,98450.31
2023-04-25T23:14:10.585Z,98446.91
2023-04-25T23:17:12.651Z,98441.66
2023-04-25T23:20:14.348Z,98447.78
2023-04-25T23:23:15.917Z,98449.59
2023-04-25T23:26:19.121Z,98447.03
2023-04-25T23:29:20.987Z,98450.63
2023-04-25T23:32:22.840Z,98450.63
2023-04-25T23:35:24.895Z,98455.00
2023-04-25T23:38:26.457Z,98455.00
2023-04-25T23:41:29.483Z,98462.91
2023-04-25T23:44:31.833Z,98462.91
2023-04-25T23:47:33.705Z,98466.41
2023-04-25T23:50:36.155Z,98462.94
2023-04-25T23:53:37.705Z,98466.56
2023-04-25T23:56:40.790Z,98464.00
2023-04-25T23:59:44.863Z,98471.91
